sensor_id;sensor_type;location;lat;lon;timestamp;P1;durP1;ratioP1;P2;durP2;ratioP2
58017;SDS011;43810;50.860;19.226;2024-02-15T00:00:28;19.77;;;9.32;;
58017;SDS011;43810;50.860;19.226;2024-02-15T00:03:14;24.48;;;9.65;;
58017;SDS011;43810;50.860;19.226;2024-02-15T00:05:39;23.55;;;10.68;;
58017;SDS011;43810;50.860;19.226;2024-02-15T00:08:05;20.15;;;10.70;;
58017;SDS011;43810;50.860;19.226;2024-02-15T00:10:31;28.05;;;10.95;;
58017;SDS011;43810;50.860;19.226;2024-02-15T00:12:57;18.77;;;9.65;;
58017;SDS011;43810;50.860;19.226;2024-02-15T00:15:23;21.77;;;9.88;;
58017;SDS011;43810;50.860;19.226;2024-02-15T00:17:50;25.75;;;11.07;;
58017;SDS011;43810;50.860;19.226;2024-02-15T00:20:16;24.88;;;10.48;;
58017;SDS011;43810;50.860;19.226;2024-02-15T00:22:43;23.60;;;9.15;;
58017;SDS011;43810;50.860;19.226;2024-02-15T00:25:10;19.73;;;9.40;;
58017;SDS011;43810;50.860;19.226;2024-02-15T00:27:39;16.55;;;8.65;;
58017;SDS011;43810;50.860;19.226;2024-02-15T00:30:05;19.80;;;9.52;;
58017;SDS011;43810;50.860;19.226;2024-02-15T00:32:35;20.45;;;8.75;;
58017;SDS011;43810;50.860;19.226;2024-02-15T00:35:02;19.00;;;9.98;;
58017;SDS011;43810;50.860;19.226;2024-02-15T00:37:35;20.38;;;9.55;;
58017;SDS011;43810;50.860;19.226;2024-02-15T00:40:00;25.88;;;9.88;;
58017;SDS011;43810;50.860;19.226;2024-02-15T00:42:30;23.95;;;9.75;;
58017;SDS011;43810;50.860;19.226;2024-02-15T00:44:58;20.90;;;9.07;;
58017;SDS011;43810;50.860;19.226;2024-02-15T00:47:24;19.75;;;9.80;;
58017;SDS011;43810;50.860;19.226;2024-02-15T00:49:50;27.52;;;10.85;;
58017;SDS011;43810;50.860;19.226;2024-02-15T00:52:16;23.05;;;9.35;;
58017;SDS011;43810;50.860;19.226;2024-02-15T00:54:45;21.10;;;8.85;;
58017;SDS011;43810;50.860;19.226;2024-02-15T00:57:11;25.50;;;9.35;;
58017;SDS011;43810;50.860;19.226;2024-02-15T00:59:37;15.85;;;8.20;;
58017;SDS011;43810;50.860;19.226;2024-02-15T01:02:03;18.80;;;8.85;;
58017;SDS011;43810;50.860;19.226;2024-02-15T01:04:29;25.65;;;9.25;;
58017;SDS011;43810;50.860;19.226;2024-02-15T01:06:55;20.83;;;9.32;;
58017;SDS011;43810;50.860;19.226;2024-02-15T01:09:23;16.70;;;9.00;;
58017;SDS011;43810;50.860;19.226;2024-02-15T01:11:49;21.70;;;9.95;;
58017;SDS011;43810;50.860;19.226;2024-02-15T01:14:15;20.35;;;9.15;;
58017;SDS011;43810;50.860;19.226;2024-02-15T01:16:42;22.80;;;9.30;;
58017;SDS011;43810;50.860;19.226;2024-02-15T01:19:08;16.42;;;8.77;;
58017;SDS011;43810;50.860;19.226;2024-02-15T01:21:34;16.05;;;8.20;;
58017;SDS011;43810;50.860;19.226;2024-02-15T01:24:00;21.23;;;8.82;;
58017;SDS011;43810;50.860;19.226;2024-02-15T01:26:26;20.65;;;9.75;;
58017;SDS011;43810;50.860;19.226;2024-02-15T01:28:52;23.88;;;10.20;;
58017;SDS011;43810;50.860;19.226;2024-02-15T01:31:19;25.33;;;10.57;;
58017;SDS011;43810;50.860;19.226;2024-02-15T01:33:44;45.90;;;15.93;;
58017;SDS011;43810;50.860;19.226;2024-02-15T01:36:16;40.17;;;13.48;;
58017;SDS011;43810;50.860;19.226;2024-02-15T01:38:43;23.08;;;8.85;;
58017;SDS011;43810;50.860;19.226;2024-02-15T01:41:10;16.90;;;8.27;;
58017;SDS011;43810;50.860;19.226;2024-02-15T01:43:36;17.60;;;9.13;;
58017;SDS011;43810;50.860;19.226;2024-02-15T01:46:09;17.00;;;8.65;;
58017;SDS011;43810;50.860;19.226;2024-02-15T01:48:35;19.95;;;8.02;;
58017;SDS011;43810;50.860;19.226;2024-02-15T01:51:02;20.50;;;8.68;;
58017;SDS011;43810;50.860;19.226;2024-02-15T01:53:29;23.52;;;8.52;;
58017;SDS011;43810;50.860;19.226;2024-02-15T01:55:56;22.90;;;9.40;;
58017;SDS011;43810;50.860;19.226;2024-02-15T01:58:25;19.63;;;9.85;;
58017;SDS011;43810;50.860;19.226;2024-02-15T02:00:53;24.02;;;8.48;;
58017;SDS011;43810;50.860;19.226;2024-02-15T02:03:22;20.35;;;9.10;;
58017;SDS011;43810;50.860;19.226;2024-02-15T02:05:48;21.23;;;9.88;;
58017;SDS011;43810;50.860;19.226;2024-02-15T02:08:14;17.30;;;8.85;;
58017;SDS011;43810;50.860;19.226;2024-02-15T02:10:40;22.35;;;9.52;;
58017;SDS011;43810;50.860;19.226;2024-02-15T02:13:06;24.10;;;9.35;;
58017;SDS011;43810;50.860;19.226;2024-02-15T02:15:32;23.60;;;10.18;;
58017;SDS011;43810;50.860;19.226;2024-02-15T02:17:58;26.00;;;10.98;;
58017;SDS011;43810;50.860;19.226;2024-02-15T02:20:25;25.63;;;9.10;;
58017;SDS011;43810;50.860;19.226;2024-02-15T02:22:53;27.60;;;10.07;;
58017;SDS011;43810;50.860;19.226;2024-02-15T02:25:22;28.30;;;10.63;;
58017;SDS011;43810;50.860;19.226;2024-02-15T02:27:51;28.17;;;9.90;;
58017;SDS011;43810;50.860;19.226;2024-02-15T02:30:17;30.85;;;11.43;;
58017;SDS011;43810;50.860;19.226;2024-02-15T02:32:44;44.58;;;15.40;;
58017;SDS011;43810;50.860;19.226;2024-02-15T02:35:11;85.15;;;24.67;;
58017;SDS011;43810;50.860;19.226;2024-02-15T02:37:38;43.17;;;14.95;;
58017;SDS011;43810;50.860;19.226;2024-02-15T02:40:05;33.15;;;11.82;;
58017;SDS011;43810;50.860;19.226;2024-02-15T02:42:36;22.70;;;9.88;;
58017;SDS011;43810;50.860;19.226;2024-02-15T02:45:11;29.20;;;10.27;;
58017;SDS011;43810;50.860;19.226;2024-02-15T02:47:37;21.15;;;9.68;;
58017;SDS011;43810;50.860;19.226;2024-02-15T02:50:03;27.67;;;11.52;;
58017;SDS011;43810;50.860;19.226;2024-02-15T02:52:28;29.67;;;11.18;;
58017;SDS011;43810;50.860;19.226;2024-02-15T02:54:54;31.80;;;13.20;;
58017;SDS011;43810;50.860;19.226;2024-02-15T02:57:20;26.25;;;10.88;;
58017;SDS011;43810;50.860;19.226;2024-02-15T02:59:47;27.00;;;10.82;;
58017;SDS011;43810;50.860;19.226;2024-02-15T03:02:12;29.60;;;10.45;;
58017;SDS011;43810;50.860;19.226;2024-02-15T03:04:38;26.48;;;11.88;;
58017;SDS011;43810;50.860;19.226;2024-02-15T03:07:05;30.42;;;12.20;;
58017;SDS011;43810;50.860;19.226;2024-02-15T03:09:31;32.20;;;15.55;;
58017;SDS011;43810;50.860;19.226;2024-02-15T03:11:56;31.70;;;13.45;;
58017;SDS011;43810;50.860;19.226;2024-02-15T03:14:22;36.17;;;17.95;;
58017;SDS011;43810;50.860;19.226;2024-02-15T03:16:48;42.50;;;16.90;;
58017;SDS011;43810;50.860;19.226;2024-02-15T03:19:14;27.67;;;12.55;;
58017;SDS011;43810;50.860;19.226;2024-02-15T03:21:39;28.08;;;10.38;;
58017;SDS011;43810;50.860;19.226;2024-02-15T03:24:07;28.65;;;12.75;;
58017;SDS011;43810;50.860;19.226;2024-02-15T03:26:32;22.23;;;12.82;;
58017;SDS011;43810;50.860;19.226;2024-02-15T03:29:05;22.63;;;10.50;;
58017;SDS011;43810;50.860;19.226;2024-02-15T03:31:33;23.05;;;10.07;;
58017;SDS011;43810;50.860;19.226;2024-02-15T03:34:05;20.90;;;8.75;;
58017;SDS011;43810;50.860;19.226;2024-02-15T03:36:31;20.52;;;8.63;;
58017;SDS011;43810;50.860;19.226;2024-02-15T03:38:57;22.25;;;10.20;;
58017;SDS011;43810;50.860;19.226;2024-02-15T03:41:22;21.35;;;9.48;;
58017;SDS011;43810;50.860;19.226;2024-02-15T03:43:48;20.00;;;9.65;;
58017;SDS011;43810;50.860;19.226;2024-02-15T03:46:14;21.60;;;9.50;;
58017;SDS011;43810;50.860;19.226;2024-02-15T03:48:41;26.10;;;10.23;;
58017;SDS011;43810;50.860;19.226;2024-02-15T03:51:15;19.02;;;9.32;;
58017;SDS011;43810;50.860;19.226;2024-02-15T03:53:42;17.80;;;8.55;;
58017;SDS011;43810;50.860;19.226;2024-02-15T03:56:08;22.20;;;8.55;;
58017;SDS011;43810;50.860;19.226;2024-02-15T03:58:34;18.52;;;8.77;;
58017;SDS011;43810;50.860;19.226;2024-02-15T04:01:01;17.10;;;8.23;;
58017;SDS011;43810;50.860;19.226;2024-02-15T04:03:32;18.75;;;8.48;;
58017;SDS011;43810;50.860;19.226;2024-02-15T04:05:59;16.55;;;8.45;;
58017;SDS011;43810;50.860;19.226;2024-02-15T04:08:25;15.30;;;7.93;;
58017;SDS011;43810;50.860;19.226;2024-02-15T04:10:51;21.65;;;8.52;;
58017;SDS011;43810;50.860;19.226;2024-02-15T04:13:18;26.23;;;9.85;;
58017;SDS011;43810;50.860;19.226;2024-02-15T04:15:44;17.48;;;9.48;;
58017;SDS011;43810;50.860;19.226;2024-02-15T04:18:12;24.50;;;10.18;;
58017;SDS011;43810;50.860;19.226;2024-02-15T04:20:39;22.30;;;10.05;;
58017;SDS011;43810;50.860;19.226;2024-02-15T04:23:10;25.00;;;11.38;;
58017;SDS011;43810;50.860;19.226;2024-02-15T04:25:36;26.48;;;10.77;;
58017;SDS011;43810;50.860;19.226;2024-02-15T04:28:02;23.17;;;10.27;;
58017;SDS011;43810;50.860;19.226;2024-02-15T04:30:31;27.10;;;9.77;;
58017;SDS011;43810;50.860;19.226;2024-02-15T04:32:58;25.52;;;10.00;;
58017;SDS011;43810;50.860;19.226;2024-02-15T04:35:23;24.08;;;9.57;;
58017;SDS011;43810;50.860;19.226;2024-02-15T04:37:52;21.52;;;9.63;;
58017;SDS011;43810;50.860;19.226;2024-02-15T04:40:18;20.35;;;9.27;;
58017;SDS011;43810;50.860;19.226;2024-02-15T04:42:45;22.80;;;10.48;;
58017;SDS011;43810;50.860;19.226;2024-02-15T04:45:12;26.27;;;9.90;;
58017;SDS011;43810;50.860;19.226;2024-02-15T04:47:43;23.63;;;10.25;;
58017;SDS011;43810;50.860;19.226;2024-02-15T04:50:10;17.73;;;8.73;;
58017;SDS011;43810;50.860;19.226;2024-02-15T04:52:36;21.13;;;9.93;;
58017;SDS011;43810;50.860;19.226;2024-02-15T04:55:02;19.23;;;10.05;;
58017;SDS011;43810;50.860;19.226;2024-02-15T04:57:30;22.70;;;10.25;;
58017;SDS011;43810;50.860;19.226;2024-02-15T04:59:58;29.15;;;9.85;;
58017;SDS011;43810;50.860;19.226;2024-02-15T05:02:25;23.50;;;10.25;;
58017;SDS011;43810;50.860;19.226;2024-02-15T05:04:51;24.25;;;11.10;;
58017;SDS011;43810;50.860;19.226;2024-02-15T05:07:22;28.65;;;10.07;;
58017;SDS011;43810;50.860;19.226;2024-02-15T05:09:48;24.98;;;10.73;;
58017;SDS011;43810;50.860;19.226;2024-02-15T05:12:21;24.63;;;9.95;;
58017;SDS011;43810;50.860;19.226;2024-02-15T05:14:49;24.83;;;9.40;;
58017;SDS011;43810;50.860;19.226;2024-02-15T05:17:19;24.60;;;10.40;;
58017;SDS011;43810;50.860;19.226;2024-02-15T05:19:44;23.48;;;8.80;;
58017;SDS011;43810;50.860;19.226;2024-02-15T05:22:10;20.90;;;8.93;;
58017;SDS011;43810;50.860;19.226;2024-02-15T05:24:36;24.88;;;11.18;;
58017;SDS011;43810;50.860;19.226;2024-02-15T05:27:04;22.17;;;9.57;;
58017;SDS011;43810;50.860;19.226;2024-02-15T05:29:30;24.92;;;10.48;;
58017;SDS011;43810;50.860;19.226;2024-02-15T05:31:59;32.28;;;14.27;;
58017;SDS011;43810;50.860;19.226;2024-02-15T05:34:26;27.15;;;12.77;;
58017;SDS011;43810;50.860;19.226;2024-02-15T05:36:52;28.42;;;13.38;;
58017;SDS011;43810;50.860;19.226;2024-02-15T05:39:18;29.38;;;13.77;;
58017;SDS011;43810;50.860;19.226;2024-02-15T05:41:47;36.42;;;14.82;;
58017;SDS011;43810;50.860;19.226;2024-02-15T05:44:13;28.92;;;13.68;;
58017;SDS011;43810;50.860;19.226;2024-02-15T05:46:44;28.90;;;12.43;;
58017;SDS011;43810;50.860;19.226;2024-02-15T05:49:10;28.48;;;11.68;;
58017;SDS011;43810;50.860;19.226;2024-02-15T05:51:41;27.15;;;12.13;;
58017;SDS011;43810;50.860;19.226;2024-02-15T05:54:07;33.85;;;11.98;;
58017;SDS011;43810;50.860;19.226;2024-02-15T05:56:33;23.48;;;12.13;;
58017;SDS011;43810;50.860;19.226;2024-02-15T05:58:58;28.55;;;13.30;;
58017;SDS011;43810;50.860;19.226;2024-02-15T06:01:24;28.10;;;11.75;;
58017;SDS011;43810;50.860;19.226;2024-02-15T06:03:50;21.27;;;12.27;;
58017;SDS011;43810;50.860;19.226;2024-02-15T06:06:20;21.30;;;10.85;;
58017;SDS011;43810;50.860;19.226;2024-02-15T06:08:46;27.23;;;11.20;;
58017;SDS011;43810;50.860;19.226;2024-02-15T06:11:13;26.67;;;12.35;;
58017;SDS011;43810;50.860;19.226;2024-02-15T06:13:39;21.65;;;11.30;;
58017;SDS011;43810;50.860;19.226;2024-02-15T06:16:06;25.50;;;11.07;;
58017;SDS011;43810;50.860;19.226;2024-02-15T06:18:34;23.27;;;11.18;;
58017;SDS011;43810;50.860;19.226;2024-02-15T06:21:01;24.00;;;10.23;;
58017;SDS011;43810;50.860;19.226;2024-02-15T06:23:27;30.00;;;10.43;;
58017;SDS011;43810;50.860;19.226;2024-02-15T06:25:54;26.48;;;11.43;;
58017;SDS011;43810;50.860;19.226;2024-02-15T06:28:23;23.45;;;12.10;;
58017;SDS011;43810;50.860;19.226;2024-02-15T06:31:08;16.98;;;10.82;;
58017;SDS011;43810;50.860;19.226;2024-02-15T06:33:53;28.77;;;11.50;;
58017;SDS011;43810;50.860;19.226;2024-02-15T06:36:45;25.08;;;12.10;;
58017;SDS011;43810;50.860;19.226;2024-02-15T06:39:33;23.15;;;11.38;;
58017;SDS011;43810;50.860;19.226;2024-02-15T06:42:13;22.08;;;11.52;;
58017;SDS011;43810;50.860;19.226;2024-02-15T06:44:42;26.45;;;10.75;;
58017;SDS011;43810;50.860;19.226;2024-02-15T06:47:08;22.25;;;10.48;;
58017;SDS011;43810;50.860;19.226;2024-02-15T06:49:42;20.52;;;9.85;;
58017;SDS011;43810;50.860;19.226;2024-02-15T06:52:09;27.77;;;11.48;;
58017;SDS011;43810;50.860;19.226;2024-02-15T06:54:37;23.67;;;10.48;;
58017;SDS011;43810;50.860;19.226;2024-02-15T06:57:04;24.20;;;10.15;;
58017;SDS011;43810;50.860;19.226;2024-02-15T06:59:30;24.50;;;10.80;;
58017;SDS011;43810;50.860;19.226;2024-02-15T07:02:05;22.73;;;10.63;;
58017;SDS011;43810;50.860;19.226;2024-02-15T07:04:31;25.65;;;10.60;;
58017;SDS011;43810;50.860;19.226;2024-02-15T07:06:59;22.48;;;11.93;;
58017;SDS011;43810;50.860;19.226;2024-02-15T07:09:25;26.60;;;11.93;;
58017;SDS011;43810;50.860;19.226;2024-02-15T07:11:51;28.52;;;10.93;;
58017;SDS011;43810;50.860;19.226;2024-02-15T07:14:17;29.15;;;12.15;;
58017;SDS011;43810;50.860;19.226;2024-02-15T07:16:46;34.85;;;13.30;;
58017;SDS011;43810;50.860;19.226;2024-02-15T07:19:15;31.55;;;13.80;;
58017;SDS011;43810;50.860;19.226;2024-02-15T07:21:42;33.33;;;12.68;;
58017;SDS011;43810;50.860;19.226;2024-02-15T07:24:08;30.40;;;14.35;;
58017;SDS011;43810;50.860;19.226;2024-02-15T07:26:35;31.60;;;13.52;;
58017;SDS011;43810;50.860;19.226;2024-02-15T07:29:01;27.90;;;12.27;;
58017;SDS011;43810;50.860;19.226;2024-02-15T07:31:31;32.08;;;12.70;;
58017;SDS011;43810;50.860;19.226;2024-02-15T07:33:58;27.45;;;12.20;;
58017;SDS011;43810;50.860;19.226;2024-02-15T07:36:24;26.17;;;12.57;;
58017;SDS011;43810;50.860;19.226;2024-02-15T07:38:51;28.25;;;11.52;;
58017;SDS011;43810;50.860;19.226;2024-02-15T07:41:26;21.95;;;10.38;;
58017;SDS011;43810;50.860;19.226;2024-02-15T07:43:53;26.38;;;11.90;;
58017;SDS011;43810;50.860;19.226;2024-02-15T07:46:20;30.80;;;13.75;;
58017;SDS011;43810;50.860;19.226;2024-02-15T07:48:47;25.98;;;12.60;;
58017;SDS011;43810;50.860;19.226;2024-02-15T07:51:14;22.77;;;11.80;;
58017;SDS011;43810;50.860;19.226;2024-02-15T07:53:41;25.02;;;12.57;;
58017;SDS011;43810;50.860;19.226;2024-02-15T07:56:08;25.70;;;11.68;;
58017;SDS011;43810;50.860;19.226;2024-02-15T07:58:41;28.45;;;12.10;;
58017;SDS011;43810;50.860;19.226;2024-02-15T08:01:14;24.25;;;11.48;;
58017;SDS011;43810;50.860;19.226;2024-02-15T08:03:40;27.20;;;11.80;;
58017;SDS011;43810;50.860;19.226;2024-02-15T08:06:10;23.75;;;11.15;;
58017;SDS011;43810;50.860;19.226;2024-02-15T08:08:43;23.65;;;10.93;;
58017;SDS011;43810;50.860;19.226;2024-02-15T08:11:13;25.10;;;11.15;;
58017;SDS011;43810;50.860;19.226;2024-02-15T08:16:13;23.13;;;10.68;;
58017;SDS011;43810;50.860;19.226;2024-02-15T08:18:43;22.17;;;10.15;;
58017;SDS011;43810;50.860;19.226;2024-02-15T08:21:09;22.63;;;9.93;;
58017;SDS011;43810;50.860;19.226;2024-02-15T08:23:36;23.30;;;10.73;;
58017;SDS011;43810;50.860;19.226;2024-02-15T08:26:02;28.95;;;10.63;;
58017;SDS011;43810;50.860;19.226;2024-02-15T08:28:27;23.92;;;10.40;;
58017;SDS011;43810;50.860;19.226;2024-02-15T08:30:54;23.13;;;10.15;;
58017;SDS011;43810;50.860;19.226;2024-02-15T08:33:22;22.50;;;9.43;;
58017;SDS011;43810;50.860;19.226;2024-02-15T08:35:49;18.88;;;9.63;;
58017;SDS011;43810;50.860;19.226;2024-02-15T08:38:14;22.90;;;9.40;;
58017;SDS011;43810;50.860;19.226;2024-02-15T08:40:40;16.92;;;7.88;;
58017;SDS011;43810;50.860;19.226;2024-02-15T08:43:06;21.83;;;9.70;;
58017;SDS011;43810;50.860;19.226;2024-02-15T08:45:31;18.05;;;9.38;;
58017;SDS011;43810;50.860;19.226;2024-02-15T08:47:57;15.75;;;8.60;;
58017;SDS011;43810;50.860;19.226;2024-02-15T08:50:23;21.00;;;9.25;;
58017;SDS011;43810;50.860;19.226;2024-02-15T08:52:49;18.85;;;8.32;;
58017;SDS011;43810;50.860;19.226;2024-02-15T08:55:15;18.33;;;8.60;;
58017;SDS011;43810;50.860;19.226;2024-02-15T08:57:42;18.10;;;8.13;;
58017;SDS011;43810;50.860;19.226;2024-02-15T09:00:10;17.90;;;9.00;;
58017;SDS011;43810;50.860;19.226;2024-02-15T09:02:39;15.45;;;8.20;;
58017;SDS011;43810;50.860;19.226;2024-02-15T09:05:06;19.38;;;8.93;;
58017;SDS011;43810;50.860;19.226;2024-02-15T09:07:32;19.30;;;8.93;;
58017;SDS011;43810;50.860;19.226;2024-02-15T09:09:58;18.58;;;8.35;;
58017;SDS011;43810;50.860;19.226;2024-02-15T09:12:24;16.67;;;8.18;;
58017;SDS011;43810;50.860;19.226;2024-02-15T09:14:50;14.98;;;8.02;;
58017;SDS011;43810;50.860;19.226;2024-02-15T09:17:16;18.23;;;8.23;;
58017;SDS011;43810;50.860;19.226;2024-02-15T09:19:42;16.55;;;7.32;;
58017;SDS011;43810;50.860;19.226;2024-02-15T09:22:07;16.92;;;8.93;;
58017;SDS011;43810;50.860;19.226;2024-02-15T09:24:33;18.77;;;8.65;;
58017;SDS011;43810;50.860;19.226;2024-02-15T09:27:02;16.20;;;8.93;;
58017;SDS011;43810;50.860;19.226;2024-02-15T09:29:28;19.95;;;9.80;;
58017;SDS011;43810;50.860;19.226;2024-02-15T09:32:00;16.35;;;8.10;;
58017;SDS011;43810;50.860;19.226;2024-02-15T09:34:28;14.35;;;8.52;;
58017;SDS011;43810;50.860;19.226;2024-02-15T09:36:54;15.50;;;7.32;;
58017;SDS011;43810;50.860;19.226;2024-02-15T09:39:22;17.65;;;7.18;;
58017;SDS011;43810;50.860;19.226;2024-02-15T09:41:48;14.13;;;5.82;;
58017;SDS011;43810;50.860;19.226;2024-02-15T09:44:21;11.77;;;6.32;;
58017;SDS011;43810;50.860;19.226;2024-02-15T09:46:46;10.90;;;5.45;;
58017;SDS011;43810;50.860;19.226;2024-02-15T09:49:19;13.05;;;5.35;;
58017;SDS011;43810;50.860;19.226;2024-02-15T09:51:46;14.63;;;6.25;;
58017;SDS011;43810;50.860;19.226;2024-02-15T09:54:14;11.50;;;5.75;;
58017;SDS011;43810;50.860;19.226;2024-02-15T09:56:47;10.73;;;5.82;;
58017;SDS011;43810;50.860;19.226;2024-02-15T09:59:15;11.20;;;5.65;;
58017;SDS011;43810;50.860;19.226;2024-02-15T10:01:41;11.05;;;5.38;;
58017;SDS011;43810;50.860;19.226;2024-02-15T10:04:08;10.32;;;4.63;;
58017;SDS011;43810;50.860;19.226;2024-02-15T10:06:34;12.45;;;5.30;;
58017;SDS011;43810;50.860;19.226;2024-02-15T10:11:55;10.25;;;5.45;;
58017;SDS011;43810;50.860;19.226;2024-02-15T10:14:26;15.13;;;5.15;;
58017;SDS011;43810;50.860;19.226;2024-02-15T10:16:52;11.80;;;5.93;;
58017;SDS011;43810;50.860;19.226;2024-02-15T10:19:22;11.57;;;4.75;;
58017;SDS011;43810;50.860;19.226;2024-02-15T10:21:52;11.25;;;5.80;;
58017;SDS011;43810;50.860;19.226;2024-02-15T10:24:22;14.43;;;6.13;;
58017;SDS011;43810;50.860;19.226;2024-02-15T10:26:49;17.42;;;6.13;;
58017;SDS011;43810;50.860;19.226;2024-02-15T10:29:16;15.48;;;7.18;;
58017;SDS011;43810;50.860;19.226;2024-02-15T10:31:53;14.15;;;6.22;;
58017;SDS011;43810;50.860;19.226;2024-02-15T10:34:20;13.85;;;6.32;;
58017;SDS011;43810;50.860;19.226;2024-02-15T10:36:46;18.20;;;7.03;;
58017;SDS011;43810;50.860;19.226;2024-02-15T10:39:15;15.88;;;6.18;;
58017;SDS011;43810;50.860;19.226;2024-02-15T10:41:49;14.00;;;7.10;;
58017;SDS011;43810;50.860;19.226;2024-02-15T10:44:20;14.88;;;5.97;;
58017;SDS011;43810;50.860;19.226;2024-02-15T10:46:49;10.82;;;5.25;;
58017;SDS011;43810;50.860;19.226;2024-02-15T10:49:22;13.20;;;6.07;;
58017;SDS011;43810;50.860;19.226;2024-02-15T10:51:55;10.57;;;4.40;;
58017;SDS011;43810;50.860;19.226;2024-02-15T10:54:32;7.63;;;4.03;;
58017;SDS011;43810;50.860;19.226;2024-02-15T10:57:06;9.95;;;4.45;;
58017;SDS011;43810;50.860;19.226;2024-02-15T10:59:35;13.07;;;4.75;;
58017;SDS011;43810;50.860;19.226;2024-02-15T11:02:09;11.45;;;4.85;;
58017;SDS011;43810;50.860;19.226;2024-02-15T11:04:52;9.25;;;4.28;;
58017;SDS011;43810;50.860;19.226;2024-02-15T11:07:25;9.57;;;5.13;;
58017;SDS011;43810;50.860;19.226;2024-02-15T11:09:54;8.65;;;4.70;;
58017;SDS011;43810;50.860;19.226;2024-02-15T11:12:24;8.15;;;3.63;;
58017;SDS011;43810;50.860;19.226;2024-02-15T11:14:53;7.70;;;3.63;;
58017;SDS011;43810;50.860;19.226;2024-02-15T11:20:05;10.38;;;3.88;;
58017;SDS011;43810;50.860;19.226;2024-02-15T11:22:36;12.77;;;5.05;;
58017;SDS011;43810;50.860;19.226;2024-02-15T11:25:03;7.13;;;3.80;;
58017;SDS011;43810;50.860;19.226;2024-02-15T11:30:04;12.75;;;6.05;;
58017;SDS011;43810;50.860;19.226;2024-02-15T11:32:47;13.77;;;5.70;;
58017;SDS011;43810;50.860;19.226;2024-02-15T11:35:23;12.20;;;5.05;;
58017;SDS011;43810;50.860;19.226;2024-02-15T11:42:59;9.75;;;3.85;;
58017;SDS011;43810;50.860;19.226;2024-02-15T11:45:26;7.28;;;4.00;;
58017;SDS011;43810;50.860;19.226;2024-02-15T11:47:58;13.07;;;5.30;;
58017;SDS011;43810;50.860;19.226;2024-02-15T11:50:27;7.35;;;4.30;;
58017;SDS011;43810;50.860;19.226;2024-02-15T11:53:01;11.30;;;4.65;;
58017;SDS011;43810;50.860;19.226;2024-02-15T11:55:31;11.88;;;4.70;;
58017;SDS011;43810;50.860;19.226;2024-02-15T11:57:58;9.32;;;4.53;;
58017;SDS011;43810;50.860;19.226;2024-02-15T12:00:34;9.52;;;3.83;;
58017;SDS011;43810;50.860;19.226;2024-02-15T12:03:19;8.57;;;4.05;;
58017;SDS011;43810;50.860;19.226;2024-02-15T12:06:04;11.45;;;5.03;;
58017;SDS011;43810;50.860;19.226;2024-02-15T12:08:49;12.43;;;4.88;;
58017;SDS011;43810;50.860;19.226;2024-02-15T12:11:35;10.75;;;4.60;;
58017;SDS011;43810;50.860;19.226;2024-02-15T12:14:19;14.80;;;5.47;;
58017;SDS011;43810;50.860;19.226;2024-02-15T12:17:06;6.53;;;3.53;;
58017;SDS011;43810;50.860;19.226;2024-02-15T12:19:52;6.60;;;3.28;;
58017;SDS011;43810;50.860;19.226;2024-02-15T12:24:59;6.80;;;3.30;;
58017;SDS011;43810;50.860;19.226;2024-02-15T12:27:26;11.65;;;4.78;;
58017;SDS011;43810;50.860;19.226;2024-02-15T12:30:01;6.13;;;3.17;;
58017;SDS011;43810;50.860;19.226;2024-02-15T12:32:31;6.95;;;3.67;;
58017;SDS011;43810;50.860;19.226;2024-02-15T12:35:09;6.18;;;2.97;;
58017;SDS011;43810;50.860;19.226;2024-02-15T12:37:48;8.88;;;4.03;;
58017;SDS011;43810;50.860;19.226;2024-02-15T12:40:31;7.28;;;3.30;;
58017;SDS011;43810;50.860;19.226;2024-02-15T12:42:58;8.45;;;3.42;;
58017;SDS011;43810;50.860;19.226;2024-02-15T12:45:25;6.88;;;3.08;;
58017;SDS011;43810;50.860;19.226;2024-02-15T12:47:54;11.73;;;4.75;;
58017;SDS011;43810;50.860;19.226;2024-02-15T12:50:20;9.50;;;3.97;;
58017;SDS011;43810;50.860;19.226;2024-02-15T12:52:50;9.95;;;3.65;;
58017;SDS011;43810;50.860;19.226;2024-02-15T12:55:17;8.48;;;3.63;;
58017;SDS011;43810;50.860;19.226;2024-02-15T12:57:47;13.93;;;3.85;;
58017;SDS011;43810;50.860;19.226;2024-02-15T13:00:20;7.32;;;3.85;;
58017;SDS011;43810;50.860;19.226;2024-02-15T13:02:49;5.72;;;3.92;;
58017;SDS011;43810;50.860;19.226;2024-02-15T13:05:17;7.18;;;3.10;;
58017;SDS011;43810;50.860;19.226;2024-02-15T13:07:44;11.32;;;3.50;;
58017;SDS011;43810;50.860;19.226;2024-02-15T13:10:14;9.10;;;4.07;;
58017;SDS011;43810;50.860;19.226;2024-02-15T13:12:41;7.95;;;4.07;;
58017;SDS011;43810;50.860;19.226;2024-02-15T13:15:08;6.47;;;3.67;;
58017;SDS011;43810;50.860;19.226;2024-02-15T13:17:37;17.63;;;4.22;;
58017;SDS011;43810;50.860;19.226;2024-02-15T13:20:03;5.88;;;3.15;;
58017;SDS011;43810;50.860;19.226;2024-02-15T13:22:30;9.65;;;4.47;;
58017;SDS011;43810;50.860;19.226;2024-02-15T13:24:57;10.95;;;4.93;;
58017;SDS011;43810;50.860;19.226;2024-02-15T13:27:23;11.95;;;4.07;;
58017;SDS011;43810;50.860;19.226;2024-02-15T13:29:49;7.93;;;3.88;;
58017;SDS011;43810;50.860;19.226;2024-02-15T13:32:16;7.97;;;2.85;;
58017;SDS011;43810;50.860;19.226;2024-02-15T13:34:49;6.90;;;3.38;;
58017;SDS011;43810;50.860;19.226;2024-02-15T13:37:21;5.10;;;3.03;;
58017;SDS011;43810;50.860;19.226;2024-02-15T13:39:48;8.02;;;3.90;;
58017;SDS011;43810;50.860;19.226;2024-02-15T13:42:15;14.32;;;5.70;;
58017;SDS011;43810;50.860;19.226;2024-02-15T13:44:44;9.40;;;4.07;;
58017;SDS011;43810;50.860;19.226;2024-02-15T13:47:10;12.82;;;5.18;;
58017;SDS011;43810;50.860;19.226;2024-02-15T13:49:37;11.85;;;4.85;;
58017;SDS011;43810;50.860;19.226;2024-02-15T13:52:04;14.02;;;5.30;;
58017;SDS011;43810;50.860;19.226;2024-02-15T13:54:31;8.40;;;4.20;;
58017;SDS011;43810;50.860;19.226;2024-02-15T13:56:58;8.63;;;3.92;;
58017;SDS011;43810;50.860;19.226;2024-02-15T13:59:26;8.40;;;4.65;;
58017;SDS011;43810;50.860;19.226;2024-02-15T14:01:54;9.02;;;4.20;;
58017;SDS011;43810;50.860;19.226;2024-02-15T14:04:20;6.60;;;4.50;;
58017;SDS011;43810;50.860;19.226;2024-02-15T14:06:47;8.48;;;3.63;;
58017;SDS011;43810;50.860;19.226;2024-02-15T14:09:14;6.30;;;3.17;;
58017;SDS011;43810;50.860;19.226;2024-02-15T14:11:39;5.63;;;3.85;;
58017;SDS011;43810;50.860;19.226;2024-02-15T14:14:05;7.97;;;4.00;;
58017;SDS011;43810;50.860;19.226;2024-02-15T14:16:31;6.28;;;3.38;;
58017;SDS011;43810;50.860;19.226;2024-02-15T14:18:58;5.45;;;3.30;;
58017;SDS011;43810;50.860;19.226;2024-02-15T14:21:25;7.38;;;3.67;;
58017;SDS011;43810;50.860;19.226;2024-02-15T14:23:51;5.55;;;3.63;;
58017;SDS011;43810;50.860;19.226;2024-02-15T14:26:17;7.38;;;3.63;;
58017;SDS011;43810;50.860;19.226;2024-02-15T14:28:43;5.57;;;3.47;;
58017;SDS011;43810;50.860;19.226;2024-02-15T14:31:10;6.47;;;3.67;;
58017;SDS011;43810;50.860;19.226;2024-02-15T14:33:55;7.35;;;3.35;;
58017;SDS011;43810;50.860;19.226;2024-02-15T14:36:21;11.65;;;3.92;;
58017;SDS011;43810;50.860;19.226;2024-02-15T14:38:47;8.00;;;4.03;;
58017;SDS011;43810;50.860;19.226;2024-02-15T14:41:13;7.75;;;3.75;;
58017;SDS011;43810;50.860;19.226;2024-02-15T14:43:39;6.45;;;3.55;;